sensor_id;sensor_type;location;lat;lon;timestamp;noise_LAeq;noise_LA_min;noise_LA_max;noise_LA01;noise_LA95
76382;Laerm;65202;52.520;10.528;2022-12-18T00:01:32;39.45;36.23;50.73;;
76382;Laerm;65202;52.520;10.528;2022-12-18T00:04:03;39.49;34.98;52.22;;
76382;Laerm;65202;52.520;10.528;2022-12-18T00:06:32;43.56;36.19;61.51;;
76382;Laerm;65202;52.520;10.528;2022-12-18T00:09:01;44.69;35.92;61.03;;
76382;Laerm;65202;52.520;10.528;2022-12-18T00:11:30;48.88;35.38;68.23;;
76382;Laerm;65202;52.520;10.528;2022-12-18T00:13:59;39.12;35.87;45.08;;
76382;Laerm;65202;52.520;10.528;2022-12-18T00:16:28;37.54;34.68;42.56;;
76382;Laerm;65202;52.520;10.528;2022-12-18T00:19:00;38.39;34.73;45.97;;
76382;Laerm;65202;52.520;10.528;2022-12-18T00:21:29;37.91;34.74;43.07;;
76382;Laerm;65202;52.520;10.528;2022-12-18T00:23:58;38.03;35.51;50.56;;
76382;Laerm;65202;52.520;10.528;2022-12-18T00:26:31;38.10;35.63;43.52;;
76382;Laerm;65202;52.520;10.528;2022-12-18T00:29:03;38.70;35.00;55.21;;
76382;Laerm;65202;52.520;10.528;2022-12-18T00:31:32;40.00;35.07;52.92;;
76382;Laerm;65202;52.520;10.528;2022-12-18T00:34:00;38.61;35.48;52.68;;
76382;Laerm;65202;52.520;10.528;2022-12-18T00:36:32;37.85;33.89;47.45;;
76382;Laerm;65202;52.520;10.528;2022-12-18T00:39:03;37.47;35.14;41.22;;
76382;Laerm;65202;52.520;10.528;2022-12-18T00:41:31;38.35;35.26;44.39;;
76382;Laerm;65202;52.520;10.528;2022-12-18T00:44:18;37.47;34.90;44.05;;
76382;Laerm;65202;52.520;10.528;2022-12-18T00:46:47;38.27;34.95;47.85;;
76382;Laerm;65202;52.520;10.528;2022-12-18T00:49:18;37.88;35.45;44.65;;
76382;Laerm;65202;52.520;10.528;2022-12-18T00:51:46;38.21;35.01;45.32;;
76382;Laerm;65202;52.520;10.528;2022-12-18T00:54:15;39.09;34.73;49.44;;
76382;Laerm;65202;52.520;10.528;2022-12-18T00:56:42;39.06;34.06;45.73;;
76382;Laerm;65202;52.520;10.528;2022-12-18T00:59:18;38.04;34.51;43.61;;
76382;Laerm;65202;52.520;10.528;2022-12-18T01:01:45;37.93;35.23;50.58;;
76382;Laerm;65202;52.520;10.528;2022-12-18T01:04:14;38.73;35.33;49.22;;
76382;Laerm;65202;52.520;10.528;2022-12-18T01:06:41;38.62;35.22;50.00;;
76382;Laerm;65202;52.520;10.528;2022-12-18T01:09:08;37.62;35.40;43.51;;
76382;Laerm;65202;52.520;10.528;2022-12-18T01:11:36;38.80;35.37;48.15;;
76382;Laerm;65202;52.520;10.528;2022-12-18T01:14:03;38.48;35.24;48.22;;
76382;Laerm;65202;52.520;10.528;2022-12-18T01:16:30;39.38;34.69;47.01;;
76382;Laerm;65202;52.520;10.528;2022-12-18T01:18:58;37.55;35.17;44.14;;
76382;Laerm;65202;52.520;10.528;2022-12-18T01:21:25;37.68;35.29;41.92;;
76382;Laerm;65202;52.520;10.528;2022-12-18T01:23:55;38.45;35.26;45.13;;
76382;Laerm;65202;52.520;10.528;2022-12-18T01:26:24;37.34;34.45;41.71;;
76382;Laerm;65202;52.520;10.528;2022-12-18T01:28:54;38.25;35.54;46.43;;
76382;Laerm;65202;52.520;10.528;2022-12-18T01:31:22;37.76;35.15;41.30;;
76382;Laerm;65202;52.520;10.528;2022-12-18T01:33:51;39.47;35.24;53.79;;
76382;Laerm;65202;52.520;10.528;2022-12-18T01:36:32;39.06;35.28;45.93;;
76382;Laerm;65202;52.520;10.528;2022-12-18T01:39:06;37.93;35.38;42.48;;
76382;Laerm;65202;52.520;10.528;2022-12-18T01:41:34;37.53;34.42;44.90;;
76382;Laerm;65202;52.520;10.528;2022-12-18T01:47:32;37.35;35.12;43.14;;
76382;Laerm;65202;52.520;10.528;2022-12-18T01:50:15;37.14;34.23;41.84;;
76382;Laerm;65202;52.520;10.528;2022-12-18T01:52:47;40.31;35.30;55.47;;
76382;Laerm;65202;52.520;10.528;2022-12-18T01:55:20;37.66;34.45;48.44;;
76382;Laerm;65202;52.520;10.528;2022-12-18T01:57:53;37.37;34.86;40.76;;
76382;Laerm;65202;52.520;10.528;2022-12-18T02:00:23;37.72;35.31;46.69;;
76382;Laerm;65202;52.520;10.528;2022-12-18T02:02:52;37.91;34.56;45.36;;
76382;Laerm;65202;52.520;10.528;2022-12-18T02:05:47;37.52;34.54;43.01;;
76382;Laerm;65202;52.520;10.528;2022-12-18T02:09:14;37.61;35.29;41.58;;
76382;Laerm;65202;52.520;10.528;2022-12-18T02:14:50;37.52;35.32;40.77;;
76382;Laerm;65202;52.520;10.528;2022-12-18T02:17:30;37.78;35.46;45.44;;
76382;Laerm;65202;52.520;10.528;2022-12-18T02:20:34;37.84;35.19;44.64;;
76382;Laerm;65202;52.520;10.528;2022-12-18T02:23:39;37.52;35.49;41.92;;
76382;Laerm;65202;52.520;10.528;2022-12-18T02:26:36;37.84;35.46;42.09;;
76382;Laerm;65202;52.520;10.528;2022-12-18T02:29:24;48.08;34.29;67.55;;
76382;Laerm;65202;52.520;10.528;2022-12-18T02:31:58;47.84;35.12;67.19;;
76382;Laerm;65202;52.520;10.528;2022-12-18T02:34:31;38.54;35.19;43.74;;
76382;Laerm;65202;52.520;10.528;2022-12-18T02:37:04;37.50;35.18;41.92;;
76382;Laerm;65202;52.520;10.528;2022-12-18T02:39:35;37.27;33.76;47.78;;
76382;Laerm;65202;52.520;10.528;2022-12-18T02:42:03;38.10;35.56;41.98;;
76382;Laerm;65202;52.520;10.528;2022-12-18T02:44:42;37.65;34.71;43.09;;
76382;Laerm;65202;52.520;10.528;2022-12-18T02:47:14;39.71;34.44;52.50;;
76382;Laerm;65202;52.520;10.528;2022-12-18T02:49:55;37.79;35.52;42.18;;
76382;Laerm;65202;52.520;10.528;2022-12-18T02:55:25;37.33;35.18;41.61;;
76382;Laerm;65202;52.520;10.528;2022-12-18T02:58:00;38.46;35.46;43.13;;
76382;Laerm;65202;52.520;10.528;2022-12-18T03:03:30;37.64;35.58;43.77;;
76382;Laerm;65202;52.520;10.528;2022-12-18T03:06:37;37.46;34.94;43.84;;
76382;Laerm;65202;52.520;10.528;2022-12-18T03:09:16;37.60;35.32;42.56;;
76382;Laerm;65202;52.520;10.528;2022-12-18T03:11:54;37.78;35.36;45.61;;
76382;Laerm;65202;52.520;10.528;2022-12-18T03:14:43;36.99;34.74;39.80;;
76382;Laerm;65202;52.520;10.528;2022-12-18T03:17:16;37.62;35.54;44.69;;
76382;Laerm;65202;52.520;10.528;2022-12-18T03:19:47;37.41;35.10;40.86;;
76382;Laerm;65202;52.520;10.528;2022-12-18T03:22:16;37.02;35.30;40.09;;
76382;Laerm;65202;52.520;10.528;2022-12-18T03:24:46;37.18;35.15;40.62;;
76382;Laerm;65202;52.520;10.528;2022-12-18T03:27:20;38.26;36.02;42.53;;
76382;Laerm;65202;52.520;10.528;2022-12-18T03:29:58;37.86;35.28;43.01;;
76382;Laerm;65202;52.520;10.528;2022-12-18T03:35:38;37.49;34.65;41.44;;
76382;Laerm;65202;52.520;10.528;2022-12-18T03:38:07;48.87;35.73;67.61;;
76382;Laerm;65202;52.520;10.528;2022-12-18T03:40:53;38.01;35.48;43.73;;
76382;Laerm;65202;52.520;10.528;2022-12-18T03:44:12;37.22;34.79;45.99;;
76382;Laerm;65202;52.520;10.528;2022-12-18T03:46:58;37.43;35.37;41.58;;
76382;Laerm;65202;52.520;10.528;2022-12-18T03:52:30;37.95;35.69;44.12;;
76382;Laerm;65202;52.520;10.528;2022-12-18T03:55:02;38.04;34.24;43.12;;
76382;Laerm;65202;52.520;10.528;2022-12-18T03:57:32;37.95;35.31;54.41;;
76382;Laerm;65202;52.520;10.528;2022-12-18T04:00:09;38.11;33.59;46.37;;
76382;Laerm;65202;52.520;10.528;2022-12-18T04:02:42;38.21;34.37;45.03;;
76382;Laerm;65202;52.520;10.528;2022-12-18T04:05:13;37.90;35.49;44.97;;
76382;Laerm;65202;52.520;10.528;2022-12-18T04:07:44;38.03;35.92;41.57;;
76382;Laerm;65202;52.520;10.528;2022-12-18T04:10:13;37.74;34.92;57.10;;
76382;Laerm;65202;52.520;10.528;2022-12-18T04:12:41;38.16;34.36;41.66;;
76382;Laerm;65202;52.520;10.528;2022-12-18T04:15:11;37.71;35.67;43.93;;
76382;Laerm;65202;52.520;10.528;2022-12-18T04:17:49;39.17;36.02;44.19;;
76382;Laerm;65202;52.520;10.528;2022-12-18T04:20:17;38.01;35.84;49.38;;
76382;Laerm;65202;52.520;10.528;2022-12-18T04:22:45;38.43;35.57;42.67;;
76382;Laerm;65202;52.520;10.528;2022-12-18T04:25:13;38.53;34.87;45.50;;
76382;Laerm;65202;52.520;10.528;2022-12-18T04:27:40;39.12;36.48;45.50;;
76382;Laerm;65202;52.520;10.528;2022-12-18T04:30:08;38.27;35.02;45.04;;
76382;Laerm;65202;52.520;10.528;2022-12-18T04:32:35;38.42;35.71;41.79;;
76382;Laerm;65202;52.520;10.528;2022-12-18T04:35:03;39.66;34.89;45.39;;
76382;Laerm;65202;52.520;10.528;2022-12-18T04:37:33;39.00;35.99;46.13;;
76382;Laerm;65202;52.520;10.528;2022-12-18T04:40:00;38.95;36.12;51.62;;
76382;Laerm;65202;52.520;10.528;2022-12-18T04:42:27;38.07;35.51;44.28;;
76382;Laerm;65202;52.520;10.528;2022-12-18T04:44:54;38.58;36.05;43.83;;
76382;Laerm;65202;52.520;10.528;2022-12-18T04:47:22;38.82;35.59;51.03;;
76382;Laerm;65202;52.520;10.528;2022-12-18T04:49:49;38.23;35.22;41.68;;
76382;Laerm;65202;52.520;10.528;2022-12-18T04:52:16;38.36;35.59;53.99;;
76382;Laerm;65202;52.520;10.528;2022-12-18T04:54:43;38.17;34.75;43.61;;
76382;Laerm;65202;52.520;10.528;2022-12-18T04:57:10;37.80;35.39;42.83;;
76382;Laerm;65202;52.520;10.528;2022-12-18T04:59:38;38.30;36.11;41.72;;
76382;Laerm;65202;52.520;10.528;2022-12-18T05:02:05;37.69;35.62;41.06;;
76382;Laerm;65202;52.520;10.528;2022-12-18T05:04:33;39.00;35.02;44.70;;
76382;Laerm;65202;52.520;10.528;2022-12-18T05:07:00;38.71;35.86;43.70;;
76382;Laerm;65202;52.520;10.528;2022-12-18T05:09:27;46.55;35.41;64.07;;
76382;Laerm;65202;52.520;10.528;2022-12-18T05:11:54;40.17;35.14;58.83;;
76382;Laerm;65202;52.520;10.528;2022-12-18T05:14:21;38.64;35.98;51.13;;
76382;Laerm;65202;52.520;10.528;2022-12-18T05:16:49;38.84;35.79;44.10;;
76382;Laerm;65202;52.520;10.528;2022-12-18T05:19:16;40.63;35.30;56.45;;
76382;Laerm;65202;52.520;10.528;2022-12-18T05:21:43;38.46;35.40;45.98;;
76382;Laerm;65202;52.520;10.528;2022-12-18T05:24:11;38.66;35.79;49.84;;
76382;Laerm;65202;52.520;10.528;2022-12-18T05:26:39;38.02;35.75;41.60;;
76382;Laerm;65202;52.520;10.528;2022-12-18T05:29:07;38.40;34.70;45.38;;
76382;Laerm;65202;52.520;10.528;2022-12-18T05:31:34;37.85;35.61;40.89;;
76382;Laerm;65202;52.520;10.528;2022-12-18T05:34:06;39.06;35.83;49.23;;
76382;Laerm;65202;52.520;10.528;2022-12-18T05:36:33;37.71;35.53;41.59;;
76382;Laerm;65202;52.520;10.528;2022-12-18T05:39:00;38.39;35.10;44.45;;
76382;Laerm;65202;52.520;10.528;2022-12-18T05:41:27;39.04;35.10;44.97;;
76382;Laerm;65202;52.520;10.528;2022-12-18T05:43:55;37.75;35.52;41.60;;
76382;Laerm;65202;52.520;10.528;2022-12-18T05:46:22;39.00;36.19;44.43;;
76382;Laerm;65202;52.520;10.528;2022-12-18T05:48:51;37.60;35.46;40.12;;
76382;Laerm;65202;52.520;10.528;2022-12-18T05:51:21;38.47;35.26;42.99;;
76382;Laerm;65202;52.520;10.528;2022-12-18T05:53:48;38.22;35.36;42.36;;
76382;Laerm;65202;52.520;10.528;2022-12-18T05:56:21;38.15;35.54;42.99;;
76382;Laerm;65202;52.520;10.528;2022-12-18T05:58:52;38.46;35.79;48.26;;
76382;Laerm;65202;52.520;10.528;2022-12-18T06:01:24;37.87;35.51;43.05;;
76382;Laerm;65202;52.520;10.528;2022-12-18T06:03:52;45.09;35.49;59.92;;
76382;Laerm;65202;52.520;10.528;2022-12-18T06:06:23;38.44;35.86;47.21;;
76382;Laerm;65202;52.520;10.528;2022-12-18T06:08:52;38.04;36.10;47.38;;
76382;Laerm;65202;52.520;10.528;2022-12-18T06:11:23;37.77;35.33;41.58;;
76382;Laerm;65202;52.520;10.528;2022-12-18T06:13:54;38.66;34.97;42.91;;
76382;Laerm;65202;52.520;10.528;2022-12-18T06:16:27;38.97;35.86;49.50;;
76382;Laerm;65202;52.520;10.528;2022-12-18T06:18:59;38.02;36.02;49.67;;
76382;Laerm;65202;52.520;10.528;2022-12-18T06:21:28;38.39;36.22;44.25;;
76382;Laerm;65202;52.520;10.528;2022-12-18T06:23:55;38.52;35.74;46.10;;
76382;Laerm;65202;52.520;10.528;2022-12-18T06:26:23;38.60;35.98;44.24;;
76382;Laerm;65202;52.520;10.528;2022-12-18T06:28:54;47.53;35.72;71.57;;
76382;Laerm;65202;52.520;10.528;2022-12-18T06:31:22;46.11;37.15;59.34;;
76382;Laerm;65202;52.520;10.528;2022-12-18T06:33:49;43.48;35.85;62.12;;
76382;Laerm;65202;52.520;10.528;2022-12-18T06:36:17;38.79;35.70;52.27;;
76382;Laerm;65202;52.520;10.528;2022-12-18T06:38:44;39.00;35.99;50.56;;
76382;Laerm;65202;52.520;10.528;2022-12-18T06:41:18;47.57;35.79;67.87;;
76382;Laerm;65202;52.520;10.528;2022-12-18T06:43:46;38.97;35.87;49.26;;
76382;Laerm;65202;52.520;10.528;2022-12-18T06:46:13;39.27;36.39;42.84;;
76382;Laerm;65202;52.520;10.528;2022-12-18T06:48:42;38.56;35.60;44.94;;
76382;Laerm;65202;52.520;10.528;2022-12-18T06:51:09;39.33;36.15;53.03;;
76382;Laerm;65202;52.520;10.528;2022-12-18T06:53:36;40.62;36.47;62.13;;
76382;Laerm;65202;52.520;10.528;2022-12-18T06:56:07;41.61;38.26;56.38;;
76382;Laerm;65202;52.520;10.528;2022-12-18T06:58:38;50.17;37.39;68.72;;
76382;Laerm;65202;52.520;10.528;2022-12-18T07:01:09;45.85;36.26;65.37;;
76382;Laerm;65202;52.520;10.528;2022-12-18T07:03:39;47.46;36.42;65.27;;
76382;Laerm;65202;52.520;10.528;2022-12-18T07:06:16;41.59;37.17;49.50;;
76382;Laerm;65202;52.520;10.528;2022-12-18T07:08:46;52.71;36.31;74.75;;
76382;Laerm;65202;52.520;10.528;2022-12-18T07:11:14;41.84;36.30;57.08;;
76382;Laerm;65202;52.520;10.528;2022-12-18T07:13:42;51.46;36.11;70.23;;
76382;Laerm;65202;52.520;10.528;2022-12-18T07:16:13;43.58;36.79;59.34;;
76382;Laerm;65202;52.520;10.528;2022-12-18T07:18:50;41.82;37.56;54.55;;
76382;Laerm;65202;52.520;10.528;2022-12-18T07:21:21;42.42;37.68;53.96;;
76382;Laerm;65202;52.520;10.528;2022-12-18T07:23:49;43.98;38.84;57.30;;
76382;Laerm;65202;52.520;10.528;2022-12-18T07:26:19;43.66;38.86;56.42;;
76382;Laerm;65202;52.520;10.528;2022-12-18T07:28:47;45.89;38.44;54.71;;
76382;Laerm;65202;52.520;10.528;2022-12-18T07:31:20;41.07;37.31;53.70;;
76382;Laerm;65202;52.520;10.528;2022-12-18T07:33:50;40.68;36.85;53.31;;
76382;Laerm;65202;52.520;10.528;2022-12-18T07:36:19;40.17;37.00;49.47;;
76382;Laerm;65202;52.520;10.528;2022-12-18T07:38:50;40.72;37.08;57.75;;
76382;Laerm;65202;52.520;10.528;2022-12-18T07:41:19;40.45;37.39;51.76;;
76382;Laerm;65202;52.520;10.528;2022-12-18T07:43:46;47.22;37.02;60.84;;
76382;Laerm;65202;52.520;10.528;2022-12-18T07:46:15;46.80;43.27;65.81;;
76382;Laerm;65202;52.520;10.528;2022-12-18T07:48:44;50.51;42.98;72.38;;
76382;Laerm;65202;52.520;10.528;2022-12-18T07:51:17;47.75;38.04;61.91;;
76382;Laerm;65202;52.520;10.528;2022-12-18T07:53:45;47.58;36.71;66.11;;
76382;Laerm;65202;52.520;10.528;2022-12-18T07:56:17;41.61;37.54;53.71;;
76382;Laerm;65202;52.520;10.528;2022-12-18T07:58:55;41.88;37.53;58.35;;
76382;Laerm;65202;52.520;10.528;2022-12-18T08:01:23;43.90;35.86;59.03;;
76382;Laerm;65202;52.520;10.528;2022-12-18T08:03:50;40.64;37.15;54.04;;
76382;Laerm;65202;52.520;10.528;2022-12-18T08:06:19;41.11;37.68;56.97;;
76382;Laerm;65202;52.520;10.528;2022-12-18T08:08:55;40.22;37.21;46.91;;
76382;Laerm;65202;52.520;10.528;2022-12-18T08:11:25;43.44;38.80;55.92;;
76382;Laerm;65202;52.520;10.528;2022-12-18T08:13:53;42.88;38.66;59.25;;
76382;Laerm;65202;52.520;10.528;2022-12-18T08:16:21;49.91;38.90;68.81;;
76382;Laerm;65202;52.520;10.528;2022-12-18T08:18:49;42.27;38.51;50.73;;
76382;Laerm;65202;52.520;10.528;2022-12-18T08:21:23;42.07;37.56;50.63;;
76382;Laerm;65202;52.520;10.528;2022-12-18T08:23:52;48.83;38.69;67.05;;
76382;Laerm;65202;52.520;10.528;2022-12-18T08:26:21;44.39;38.82;61.31;;
76382;Laerm;65202;52.520;10.528;2022-12-18T08:28:50;50.36;38.51;70.33;;
76382;Laerm;65202;52.520;10.528;2022-12-18T08:31:18;50.73;38.92;71.18;;
76382;Laerm;65202;52.520;10.528;2022-12-18T08:33:51;50.35;39.40;69.77;;
76382;Laerm;65202;52.520;10.528;2022-12-18T08:36:20;43.38;39.48;55.27;;
76382;Laerm;65202;52.520;10.528;2022-12-18T08:38:47;49.89;39.13;69.06;;
76382;Laerm;65202;52.520;10.528;2022-12-18T08:41:16;44.05;39.24;62.30;;
76382;Laerm;65202;52.520;10.528;2022-12-18T08:43:44;45.23;39.67;66.75;;
76382;Laerm;65202;52.520;10.528;2022-12-18T08:46:39;44.63;39.50;63.22;;
76382;Laerm;65202;52.520;10.528;2022-12-18T08:49:10;51.21;39.86;70.68;;
76382;Laerm;65202;52.520;10.528;2022-12-18T08:51:38;50.97;40.03;69.35;;
76382;Laerm;65202;52.520;10.528;2022-12-18T08:54:06;45.75;39.93;59.53;;
76382;Laerm;65202;52.520;10.528;2022-12-18T08:56:34;48.10;39.25;66.89;;
76382;Laerm;65202;52.520;10.528;2022-12-18T08:59:01;43.73;39.37;53.49;;
76382;Laerm;65202;52.520;10.528;2022-12-18T09:01:28;45.48;39.83;62.40;;
76382;Laerm;65202;52.520;10.528;2022-12-18T09:03:56;44.15;39.66;55.61;;
76382;Laerm;65202;52.520;10.528;2022-12-18T09:06:23;44.47;39.26;56.35;;
76382;Laerm;65202;52.520;10.528;2022-12-18T09:08:51;49.49;39.62;68.21;;
76382;Laerm;65202;52.520;10.528;2022-12-18T09:11:24;43.04;39.19;51.27;;
76382;Laerm;65202;52.520;10.528;2022-12-18T09:13:53;43.25;37.08;54.80;;
76382;Laerm;65202;52.520;10.528;2022-12-18T09:16:24;44.06;37.92;56.82;;
76382;Laerm;65202;52.520;10.528;2022-12-18T09:18:59;43.10;38.32;55.89;;
76382;Laerm;65202;52.520;10.528;2022-12-18T09:21:31;43.22;38.67;55.21;;
76382;Laerm;65202;52.520;10.528;2022-12-18T09:24:04;47.03;38.56;58.59;;
76382;Laerm;65202;52.520;10.528;2022-12-18T09:26:35;53.11;39.50;67.21;;
76382;Laerm;65202;52.520;10.528;2022-12-18T09:29:03;47.28;39.56;58.31;;
76382;Laerm;65202;52.520;10.528;2022-12-18T09:31:31;46.14;37.62;59.47;;
76382;Laerm;65202;52.520;10.528;2022-12-18T09:33:58;47.34;38.08;63.45;;
76382;Laerm;65202;52.520;10.528;2022-12-18T09:36:25;45.59;37.68;61.34;;
76382;Laerm;65202;52.520;10.528;2022-12-18T09:38:52;44.37;38.00;58.87;;
76382;Laerm;65202;52.520;10.528;2022-12-18T09:41:43;50.47;38.33;67.95;;
76382;Laerm;65202;52.520;10.528;2022-12-18T09:44:23;48.15;39.98;65.39;;
76382;Laerm;65202;52.520;10.528;2022-12-18T09:47:11;45.62;39.86;66.35;;
76382;Laerm;65202;52.520;10.528;2022-12-18T09:49:50;43.70;39.33;66.18;;
76382;Laerm;65202;52.520;10.528;2022-12-18T09:52:32;46.44;38.68;63.56;;
76382;Laerm;65202;52.520;10.528;2022-12-18T09:57:57;49.35;38.68;69.47;;
76382;Laerm;65202;52.520;10.528;2022-12-18T10:00:28;48.58;38.54;62.74;;
76382;Laerm;65202;52.520;10.528;2022-12-18T10:03:10;42.01;38.82;53.05;;
76382;Laerm;65202;52.520;10.528;2022-12-18T10:06:02;42.54;38.94;50.68;;
76382;Laerm;65202;52.520;10.528;2022-12-18T10:09:02;45.58;40.59;60.63;;
76382;Laerm;65202;52.520;10.528;2022-12-18T10:14:30;46.55;38.45;65.14;;
76382;Laerm;65202;52.520;10.528;2022-12-18T10:23:11;40.74;37.45;53.42;;
76382;Laerm;65202;52.520;10.528;2022-12-18T10:28:20;44.97;38.24;58.97;;
76382;Laerm;65202;52.520;10.528;2022-12-18T10:30:48;41.85;38.70;54.02;;
76382;Laerm;65202;52.520;10.528;2022-12-18T10:33:21;45.27;38.30;64.61;;
76382;Laerm;65202;52.520;10.528;2022-12-18T10:35:51;48.95;38.70;76.65;;
76382;Laerm;65202;52.520;10.528;2022-12-18T10:44:16;44.64;37.85;64.90;;
76382;Laerm;65202;52.520;10.528;2022-12-18T10:46:48;42.84;38.31;61.43;;
76382;Laerm;65202;52.520;10.528;2022-12-18T10:49:27;42.12;38.38;54.69;;
76382;Laerm;65202;52.520;10.528;2022-12-18T10:52:18;50.37;38.42;66.35;;
76382;Laerm;65202;52.520;10.528;2022-12-18T10:54:57;41.42;38.12;57.27;;
76382;Laerm;65202;52.520;10.528;2022-12-18T10:57:38;43.26;37.54;63.44;;
76382;Laerm;65202;52.520;10.528;2022-12-18T11:00:27;52.44;37.97;78.65;;
76382;Laerm;65202;52.520;10.528;2022-12-18T11:02:56;44.64;38.45;65.91;;
76382;Laerm;65202;52.520;10.528;2022-12-18T11:05:33;45.78;38.27;62.86;;
76382;Laerm;65202;52.520;10.528;2022-12-18T11:08:03;41.66;37.23;55.16;;
76382;Laerm;65202;52.520;10.528;2022-12-18T11:10:37;41.54;37.93;60.17;;
76382;Laerm;65202;52.520;10.528;2022-12-18T11:13:25;41.79;38.13;51.13;;
76382;Laerm;65202;52.520;10.528;2022-12-18T11:15:53;47.14;38.37;63.56;;
76382;Laerm;65202;52.520;10.528;2022-12-18T11:18:27;50.20;38.36;69.44;;
76382;Laerm;65202;52.520;10.528;2022-12-18T11:21:11;50.97;38.77;69.61;;
76382;Laerm;65202;52.520;10.528;2022-12-18T11:23:50;47.89;38.49;61.52;;
76382;Laerm;65202;52.520;10.528;2022-12-18T11:26:19;41.89;38.57;55.77;;
76382;Laerm;65202;52.520;10.528;2022-12-18T11:28:51;46.01;38.34;62.54;;
76382;Laerm;65202;52.520;10.528;2022-12-18T11:31:20;42.07;38.45;63.14;;
76382;Laerm;65202;52.520;10.528;2022-12-18T11:34:14;40.89;37.13;52.97;;
76382;Laerm;65202;52.520;10.528;2022-12-18T11:36:59;50.39;37.86;68.20;;
76382;Laerm;65202;52.520;10.528;2022-12-18T11:39:35;46.87;38.29;67.72;;
76382;Laerm;65202;52.520;10.528;2022-12-18T11:42:44;53.85;37.95;71.41;;
76382;Laerm;65202;52.520;10.528;2022-12-18T11:48:02;46.14;37.52;63.67;;
76382;Laerm;65202;52.520;10.528;2022-12-18T11:50:44;45.55;37.31;59.12;;
76382;Laerm;65202;52.520;10.528;2022-12-18T11:53:13;41.54;38.08;58.57;;
76382;Laerm;65202;52.520;10.528;2022-12-18T11:55:51;41.95;37.77;62.45;;
76382;Laerm;65202;52.520;10.528;2022-12-18T11:58:48;40.69;37.15;47.94;;
76382;Laerm;65202;52.520;10.528;2022-12-18T12:05:15;42.55;37.76;58.23;;
76382;Laerm;65202;52.520;10.528;2022-12-18T12:08:08;41.01;38.12;48.16;;
76382;Laerm;65202;52.520;10.528;2022-12-18T12:13:41;41.50;37.72;49.56;;
76382;Laerm;65202;52.520;10.528;2022-12-18T12:16:16;52.45;37.96;72.61;;
76382;Laerm;65202;52.520;10.528;2022-12-18T12:31:38;48.22;38.06;66.42;;
76382;Laerm;65202;52.520;10.528;2022-12-18T12:34:18;44.69;37.96;63.77;;
76382;Laerm;65202;52.520;10.528;2022-12-18T12:37:04;48.59;37.84;66.01;;
76382;Laerm;65202;52.520;10.528;2022-12-18T12:39:40;47.84;38.81;62.09;;
76382;Laerm;65202;52.520;10.528;2022-12-18T12:46:04;52.35;38.41;78.26;;
76382;Laerm;65202;52.520;10.528;2022-12-18T12:48:51;44.38;38.34;57.84;;
76382;Laerm;65202;52.520;10.528;2022-12-18T12:51:25;42.85;38.33;67.83;;
76382;Laerm;65202;52.520;10.528;2022-12-18T12:53:56;52.13;38.43;71.26;;
76382;Laerm;65202;52.520;10.528;2022-12-18T12:56:37;41.56;38.33;54.10;;
76382;Laerm;65202;52.520;10.528;2022-12-18T12:59:30;42.02;38.79;48.00;;
76382;Laerm;65202;52.520;10.528;2022-12-18T13:07:59;42.45;38.88;62.19;;
76382;Laerm;65202;52.520;10.528;2022-12-18T13:10:43;42.04;38.76;50.40;;
76382;Laerm;65202;52.520;10.528;2022-12-18T13:13:13;42.53;38.40;52.34;;
76382;Laerm;65202;52.520;10.528;2022-12-18T13:16:07;46.26;38.50;58.98;;
76382;Laerm;65202;52.520;10.528;2022-12-18T13:18:35;50.61;38.26;70.28;;
76382;Laerm;65202;52.520;10.528;2022-12-18T13:21:27;42.44;38.01;54.18;;
76382;Laerm;65202;52.520;10.528;2022-12-18T13:23:56;47.77;38.72;65.51;;
76382;Laerm;65202;52.520;10.528;2022-12-18T13:26:41;44.30;39.44;61.83;;
76382;Laerm;65202;52.520;10.528;2022-12-18T13:29:08;47.99;39.22;64.00;;
76382;Laerm;65202;52.520;10.528;2022-12-18T13:34:23;42.34;39.17;48.84;;
76382;Laerm;65202;52.520;10.528;2022-12-18T13:36:56;48.50;39.55;65.70;;
76382;Laerm;65202;52.520;10.528;2022-12-18T13:39:33;47.88;38.74;66.42;;
76382;Laerm;65202;52.520;10.528;2022-12-18T13:44:41;47.61;38.16;65.22;;
76382;Laerm;65202;52.520;10.528;2022-12-18T13:47:47;43.91;38.89;58.11;;
76382;Laerm;65202;52.520;10.528;2022-12-18T13:50:25;51.14;39.55;69.28;;
76382;Laerm;65202;52.520;10.528;2022-12-18T13:53:04;53.56;38.89;68.09;;
76382;Laerm;65202;52.520;10.528;2022-12-18T13:55:32;47.85;39.33;61.33;;
76382;Laerm;65202;52.520;10.528;2022-12-18T13:58:05;45.75;39.26;62.57;;
76382;Laerm;65202;52.520;10.528;2022-12-18T14:00:33;47.73;38.71;63.28;;
76382;Laerm;65202;52.520;10.528;2022-12-18T14:03:01;43.04;38.95;56.52;;
76382;Laerm;65202;52.520;10.528;2022-12-18T14:05:32;41.58;38.63;48.95;;
76382;Laerm;65202;52.520;10.528;2022-12-18T14:08:05;47.16;40.38;58.42;;
76382;Laerm;65202;52.520;10.528;2022-12-18T14:10:42;42.57;39.33;59.03;;
76382;Laerm;65202;52.520;10.528;2022-12-18T14:13:41;47.68;38.45;65.07;;
76382;Laerm;65202;52.520;10.528;2022-12-18T14:16:14;44.63;38.96;58.65;;
76382;Laerm;65202;52.520;10.528;2022-12-18T14:18:53;48.94;39.30;67.72;;
76382;Laerm;65202;52.520;10.528;2022-12-18T14:21:38;49.72;38.92;75.06;;
76382;Laerm;65202;52.520;10.528;2022-12-18T14:24:16;49.08;39.85;65.32;;
76382;Laerm;65202;52.520;10.528;2022-12-18T14:26:47;48.56;41.18;61.86;;
76382;Laerm;65202;52.520;10.528;2022-12-18T14:29:27;48.73;39.98;67.67;;
76382;Laerm;65202;52.520;10.528;2022-12-18T14:32:08;46.44;38.44;64.00;;
76382;Laerm;65202;52.520;10.528;2022-12-18T14:34:49;49.84;38.74;69.69;;
76382;Laerm;65202;52.520;10.528;2022-12-18T14:37:21;50.44;39.80;67.34;;
76382;Laerm;65202;52.520;10.528;2022-12-18T14:39:57;48.80;38.60;65.25;;
76382;Laerm;65202;52.520;10.528;2022-12-18T14:42:28;50.55;39.44;67.67;;
76382;Laerm;65202;52.520;10.528;2022-12-18T14:45:37;48.07;38.44;66.57;;
76382;Laerm;65202;52.520;10.528;2022-12-18T14:53:56;47.75;39.15;67.20;;
76382;Laerm;65202;52.520;10.528;2022-12-18T14:56:36;44.49;39.51;55.22;;
76382;Laerm;65202;52.520;10.528;2022-12-18T14:59:21;46.92;39.12;61.13;;
76382;Laerm;65202;52.520;10.528;2022-12-18T15:02:16;45.47;38.70;69.35;;
76382;Laerm;65202;52.520;10.528;2022-12-18T15:04:47;45.21;38.78;56.75;;
76382;Laerm;65202;52.520;10.528;2022-12-18T15:07:26;44.86;38.81;64.12;;
76382;Laerm;65202;52.520;10.528;2022-12-18T15:10:04;47.95;41.28;63.06;;
76382;Laerm;65202;52.520;10.528;2022-12-18T15:20:53;41.65;38.72;47.98;;
76382;Laerm;65202;52.520;10.528;2022-12-18T15:23:28;42.69;38.60;61.43;;
76382;Laerm;65202;52.520;10.528;2022-12-18T15:26:12;42.61;38.92;57.01;;
76382;Laerm;65202;52.520;10.528;2022-12-18T15:28:52;42.33;39.10;55.40;;
76382;Laerm;65202;52.520;10.528;2022-12-18T15:31:24;46.95;38.78;64.70;;
76382;Laerm;65202;52.520;10.528;2022-12-18T15:36:23;47.94;38.72;67.66;;
76382;Laerm;65202;52.520;10.528;2022-12-18T15:38:55;45.78;39.59;59.93;;
76382;Laerm;65202;52.520;10.528;2022-12-18T15:41:35;49.67;39.04;67.71;;